Time;durP1;ratioP1;P1;durP2;ratioP2;P2;SDS_P1;SDS_P2;PMS_P1;PMS_P2;Temp;Humidity;BMP_temperature;BMP_pressure;BME280_temperature;BME280_humidity;BME280_pressure;Samples;Min_cycle;Max_cycle;Signal;HPM_P1;HPM_P2
2022/03/03 00:02:09;;;;;;;30.40;21.13;;;1.00;99.90;;;;;;5085368;28;20186;-74
2022/03/03 00:04:35;;;;;;;31.73;19.93;;;1.00;99.90;;;;;;5084664;28;20227;-75
2022/03/03 00:07:00;;;;;;;28.20;19.90;;;1.00;99.90;;;;;;5084859;28;20280;-77
2022/03/03 00:09:26;;;;;;;36.40;21.63;;;0.90;99.90;;;;;;5094116;28;20306;-79
2022/03/03 00:11:52;;;;;;;33.17;21.57;;;0.90;99.90;;;;;;5085031;28;20219;-78
2022/03/03 00:14:17;;;;;;;30.77;19.93;;;0.90;99.90;;;;;;5082570;28;20689;-77
2022/03/03 00:16:43;;;;;;;28.93;21.40;;;0.90;99.90;;;;;;5088020;28;20635;-75
2022/03/03 00:19:08;;;;;;;30.27;19.53;;;0.90;99.90;;;;;;5084462;28;20236;-76
2022/03/03 00:21:34;;;;;;;33.80;19.47;;;0.90;99.90;;;;;;5094557;28;20183;-83
2022/03/03 00:23:59;;;;;;;30.00;20.23;;;0.90;99.90;;;;;;5096261;28;20188;-77
2022/03/03 00:26:25;;;;;;;33.17;20.07;;;0.90;99.90;;;;;;5085105;28;20189;-76
2022/03/03 00:28:51;;;;;;;25.67;18.37;;;0.90;99.90;;;;;;5087238;28;20214;-77
2022/03/03 00:31:16;;;;;;;32.03;18.80;;;0.90;99.90;;;;;;5090764;28;20181;-76
2022/03/03 00:33:42;;;;;;;35.43;20.17;;;0.80;99.90;;;;;;5089112;28;20249;-74
2022/03/03 00:36:07;;;;;;;27.93;20.23;;;0.80;99.90;;;;;;5086775;28;20683;-76
2022/03/03 00:38:32;;;;;;;34.43;19.90;;;0.80;99.90;;;;;;5088971;28;20227;-75
2022/03/03 00:40:58;;;;;;;28.77;19.70;;;0.80;99.90;;;;;;5086736;28;20201;-74
2022/03/03 00:43:24;;;;;;;31.20;20.33;;;0.80;99.90;;;;;;5092606;28;20201;-74
2022/03/03 00:45:49;;;;;;;29.97;18.60;;;0.70;99.90;;;;;;5092003;28;20367;-75
2022/03/03 00:48:15;;;;;;;30.90;19.23;;;0.70;99.90;;;;;;5088911;28;20257;-76
2022/03/03 00:50:40;;;;;;;32.33;18.83;;;0.70;99.90;;;;;;5087116;28;20193;-69
2022/03/03 00:53:06;;;;;;;27.13;18.97;;;0.70;99.90;;;;;;5097996;28;20660;-68
2022/03/03 00:55:32;;;;;;;29.83;19.43;;;0.80;99.90;;;;;;5087394;28;20471;-70
2022/03/03 00:57:57;;;;;;;29.10;19.63;;;0.80;99.90;;;;;;5088615;28;20737;-70
2022/03/03 01:00:23;;;;;;;31.77;20.40;;;0.80;99.90;;;;;;5086734;28;20563;-70
2022/03/03 01:02:49;;;;;;;28.13;20.47;;;0.90;99.90;;;;;;5088756;28;20217;-74
2022/03/03 01:05:16;;;;;;;32.20;19.70;;;0.90;99.90;;;;;;5088715;28;20204;-73
2022/03/03 01:07:42;;;;;;;29.40;19.17;;;0.90;99.90;;;;;;5089761;28;20197;-84
2022/03/03 01:10:08;;;;;;;31.30;18.73;;;1.00;99.90;;;;;;5092744;28;20542;-83
2022/03/03 01:12:34;;;;;;;32.90;19.83;;;1.10;99.90;;;;;;5090284;28;20200;-73
2022/03/03 01:15:00;;;;;;;32.37;19.43;;;1.10;99.90;;;;;;5094554;28;20208;-81
2022/03/03 01:17:25;;;;;;;30.47;19.77;;;1.20;99.90;;;;;;5088891;28;20558;-75
2022/03/03 01:19:51;;;;;;;28.27;19.10;;;1.30;99.90;;;;;;5085491;28;20866;-74
2022/03/03 01:22:17;;;;;;;24.90;18.03;;;1.30;99.90;;;;;;5093907;28;20185;-76
2022/03/03 01:24:43;;;;;;;28.60;19.87;;;1.30;99.90;;;;;;5085519;28;20693;-76
2022/03/03 01:27:09;;;;;;;26.27;18.37;;;1.30;99.90;;;;;;5089822;28;20196;-77
2022/03/03 01:29:35;;;;;;;30.77;19.00;;;1.30;99.90;;;;;;5086798;28;20220;-72
2022/03/03 01:32:01;;;;;;;26.37;18.03;;;1.40;99.90;;;;;;5087644;28;20242;-76
2022/03/03 01:34:26;;;;;;;27.23;17.37;;;1.40;99.90;;;;;;5090694;28;20209;-75
2022/03/03 01:36:52;;;;;;;30.07;18.73;;;1.40;99.90;;;;;;5095735;28;20199;-74
2022/03/03 01:39:18;;;;;;;29.07;18.73;;;1.40;99.90;;;;;;5089593;28;20208;-75
2022/03/03 01:41:43;;;;;;;34.40;19.87;;;1.40;99.90;;;;;;5103667;28;20195;-78
2022/03/03 01:44:09;;;;;;;28.17;19.20;;;1.30;99.90;;;;;;5086179;28;20211;-79
2022/03/03 01:46:35;;;;;;;31.90;19.63;;;1.30;99.90;;;;;;5087978;28;20270;-77
2022/03/03 01:49:00;;;;;;;30.13;19.03;;;1.30;99.90;;;;;;5085447;28;20227;-82
2022/03/03 01:51:26;;;;;;;28.57;18.60;;;1.20;99.90;;;;;;5095616;28;20185;-79
2022/03/03 01:53:52;;;;;;;31.73;19.37;;;1.20;99.90;;;;;;5085909;28;20192;-72
2022/03/03 01:56:18;;;;;;;31.13;19.40;;;1.20;99.90;;;;;;5094760;28;20211;-72
2022/03/03 01:58:45;;;;;;;27.73;17.87;;;1.20;99.90;;;;;;5090595;28;20203;-74
2022/03/03 02:01:12;;;;;;;26.87;19.43;;;1.10;99.90;;;;;;5104281;28;20209;-73
2022/03/03 02:03:37;;;;;;;32.00;19.17;;;1.10;99.90;;;;;;5100746;28;20240;-73
2022/03/03 02:06:03;;;;;;;29.40;19.17;;;1.10;99.90;;;;;;5084421;28;20634;-71
2022/03/03 02:08:29;;;;;;;25.80;18.10;;;1.10;99.90;;;;;;5085282;28;20228;-73
2022/03/03 02:10:55;;;;;;;25.50;17.43;;;1.00;99.90;;;;;;5100831;28;20243;-74
2022/03/03 02:13:20;;;;;;;26.97;18.17;;;1.00;99.90;;;;;;5091575;28;20197;-75
2022/03/03 02:15:53;;;;;;;28.53;18.13;;;1.00;99.90;;;;;;5094651;28;20562;-73
2022/03/03 02:18:19;;;;;;;30.70;19.57;;;1.10;99.90;;;;;;5102944;28;20211;-70
2022/03/03 02:20:46;;;;;;;29.40;19.33;;;1.20;99.90;;;;;;5097799;28;20233;-68
2022/03/03 02:23:11;;;;;;;32.00;21.03;;;1.20;99.90;;;;;;5094136;28;20197;-77
2022/03/03 02:25:37;;;;;;;35.43;19.13;;;1.30;99.90;;;;;;5086003;28;20576;-72
2022/03/03 02:28:03;;;;;;;31.90;19.67;;;1.40;99.90;;;;;;5099396;28;20225;-70
2022/03/03 02:30:29;;;;;;;26.43;17.87;;;1.40;99.90;;;;;;5090718;28;20296;-70
2022/03/03 02:32:54;;;;;;;30.87;19.23;;;1.50;99.90;;;;;;5092388;28;20287;-69
2022/03/03 02:35:20;;;;;;;33.93;19.07;;;1.60;99.90;;;;;;5086216;28;20600;-68
2022/03/03 02:37:46;;;;;;;27.20;17.87;;;1.60;99.90;;;;;;5087452;28;20190;-69
2022/03/03 02:40:19;;;;;;;23.77;16.73;;;1.70;99.90;;;;;;5096583;28;20659;-70
2022/03/03 02:42:49;;;;;;;30.13;19.33;;;1.50;99.90;;;;;;5099413;28;20312;-73
2022/03/03 02:45:14;;;;;;;27.33;19.13;;;1.50;99.90;;;;;;5093891;28;20259;-75
2022/03/03 02:47:41;;;;;;;27.63;18.33;;;1.60;99.90;;;;;;5097850;28;20206;-74
2022/03/03 02:50:08;;;;;;;31.50;19.03;;;1.60;99.90;;;;;;5097800;28;20212;-75
2022/03/03 02:52:34;;;;;;;24.20;17.57;;;1.60;99.90;;;;;;5097049;28;20275;-74
2022/03/03 02:54:59;;;;;;;28.43;17.10;;;1.70;99.90;;;;;;5097832;28;20335;-72
2022/03/03 03:00:09;;;;;;;28.67;18.90;;;1.80;99.90;;;;;;5076319;28;20720;-73
2022/03/03 03:02:35;;;;;;;27.83;17.93;;;1.80;99.90;;;;;;5097311;28;20192;-73
2022/03/03 03:05:00;;;;;;;24.00;17.73;;;1.80;99.90;;;;;;5097784;28;20209;-73
2022/03/03 03:07:26;;;;;;;34.17;18.23;;;1.90;99.90;;;;;;5095810;28;20188;-73
2022/03/03 03:09:51;;;;;;;23.97;17.67;;;1.90;99.90;;;;;;5093753;28;20268;-74
2022/03/03 03:12:17;;;;;;;28.60;17.90;;;1.90;99.90;;;;;;5089083;28;20547;-75
2022/03/03 03:14:42;;;;;;;28.80;19.23;;;1.90;99.90;;;;;;5091268;28;20306;-69
2022/03/03 03:17:08;;;;;;;29.63;18.80;;;1.80;99.90;;;;;;5095997;28;20399;-69
2022/03/03 03:19:33;;;;;;;25.37;17.50;;;1.80;99.90;;;;;;5093219;28;20240;-69
2022/03/03 03:21:59;;;;;;;27.43;18.23;;;1.80;99.90;;;;;;5096880;28;20196;-69
2022/03/03 03:24:25;;;;;;;29.87;19.00;;;1.80;99.90;;;;;;5089374;28;20302;-68
2022/03/03 03:26:50;;;;;;;23.57;19.03;;;1.80;99.90;;;;;;5098583;28;20743;-69
2022/03/03 03:29:16;;;;;;;23.90;18.07;;;1.70;99.90;;;;;;5095996;28;20275;-69
2022/03/03 03:31:42;;;;;;;26.10;18.10;;;1.70;99.90;;;;;;5106075;28;20202;-68
2022/03/03 03:34:07;;;;;;;30.70;18.63;;;1.70;99.90;;;;;;5090386;28;20571;-72
2022/03/03 03:36:33;;;;;;;28.30;17.97;;;1.70;99.90;;;;;;5100844;28;20189;-71
2022/03/03 03:38:58;;;;;;;25.27;18.83;;;1.60;99.90;;;;;;5094172;28;20224;-71
2022/03/03 03:41:24;;;;;;;25.20;17.63;;;1.60;99.90;;;;;;5099554;28;20662;-71
2022/03/03 03:43:50;;;;;;;27.00;18.07;;;1.60;99.90;;;;;;5089707;28;20680;-68
2022/03/03 03:46:15;;;;;;;28.03;19.07;;;1.20;99.90;;;;;;5098822;28;20715;-68
2022/03/03 03:48:41;;;;;;;24.00;16.70;;;0.90;99.90;;;;;;5089970;28;20207;-68
2022/03/03 03:51:06;;;;;;;24.57;17.60;;;0.80;99.90;;;;;;5102644;28;20290;-69
2022/03/03 03:53:31;;;;;;;28.50;16.77;;;0.80;99.90;;;;;;5099637;28;20192;-69
2022/03/03 03:55:57;;;;;;;27.20;16.77;;;1.00;99.90;;;;;;5091588;28;20207;-69
2022/03/03 03:58:22;;;;;;;28.77;17.83;;;1.00;99.90;;;;;;5085156;28;20686;-69
2022/03/03 04:00:48;;;;;;;27.87;16.60;;;0.90;99.90;;;;;;5094407;28;20201;-69
2022/03/03 04:03:13;;;;;;;28.33;17.43;;;1.00;99.90;;;;;;5101440;28;20219;-69
2022/03/03 04:05:39;;;;;;;28.07;18.83;;;1.10;99.90;;;;;;5092220;28;20205;-68
2022/03/03 04:08:05;;;;;;;25.50;17.57;;;1.20;99.90;;;;;;5094727;28;20570;-70
2022/03/03 04:10:30;;;;;;;27.17;17.90;;;1.20;99.90;;;;;;5084108;28;20212;-70
2022/03/03 04:12:56;;;;;;;25.70;17.00;;;1.20;99.90;;;;;;5099607;28;20191;-72
2022/03/03 04:15:22;;;;;;;29.07;19.80;;;1.30;99.90;;;;;;5091368;28;20257;-71
2022/03/03 04:17:48;;;;;;;29.97;18.87;;;1.30;99.90;;;;;;5098452;28;20193;-72
2022/03/03 04:20:14;;;;;;;26.37;18.87;;;1.30;99.90;;;;;;5094610;28;20227;-71
2022/03/03 04:22:40;;;;;;;31.47;19.93;;;1.30;99.90;;;;;;5101521;28;20568;-71
2022/03/03 04:25:06;;;;;;;30.17;18.83;;;1.10;99.90;;;;;;5096407;28;20211;-72
2022/03/03 04:27:31;;;;;;;30.53;18.07;;;0.90;99.90;;;;;;5102856;28;20193;-70
2022/03/03 04:29:57;;;;;;;27.20;19.37;;;0.90;99.90;;;;;;5083353;28;20213;-70
2022/03/03 04:32:22;;;;;;;27.10;19.47;;;0.70;99.90;;;;;;5098038;28;20299;-70
2022/03/03 04:34:48;;;;;;;29.20;20.23;;;0.50;99.90;;;;;;5092669;28;20223;-70
2022/03/03 04:37:13;;;;;;;26.20;18.70;;;0.40;99.90;;;;;;5097325;28;20225;-72
2022/03/03 04:39:39;;;;;;;30.27;20.80;;;0.40;99.90;;;;;;5099320;28;20219;-71
2022/03/03 04:42:05;;;;;;;29.13;19.60;;;0.40;99.90;;;;;;5101424;28;20815;-72
2022/03/03 04:44:30;;;;;;;26.97;18.93;;;0.50;99.90;;;;;;5094445;28;20639;-72
2022/03/03 04:46:55;;;;;;;31.83;18.47;;;0.50;99.90;;;;;;5098409;28;20260;-72
2022/03/03 04:49:21;;;;;;;26.23;18.47;;;0.40;99.90;;;;;;5093870;28;20224;-72
2022/03/03 04:51:47;;;;;;;33.53;19.77;;;0.40;99.90;;;;;;5097849;28;20576;-68
2022/03/03 04:54:12;;;;;;;27.53;18.03;;;0.40;99.90;;;;;;5095641;28;20739;-67
2022/03/03 04:56:39;;;;;;;26.00;18.67;;;0.40;99.90;;;;;;5090584;28;20219;-70
2022/03/03 04:59:05;;;;;;;22.90;16.47;;;0.50;99.90;;;;;;5094847;28;20212;-70
2022/03/03 05:01:31;;;;;;;28.40;18.10;;;0.40;99.90;;;;;;5095843;28;20612;-69
2022/03/03 05:03:57;;;;;;;31.03;19.33;;;0.40;99.90;;;;;;5093853;28;20224;-70
2022/03/03 05:06:22;;;;;;;23.07;17.80;;;0.30;99.90;;;;;;5094266;28;20184;-75
2022/03/03 05:08:48;;;;;;;26.77;18.50;;;0.20;99.90;;;;;;5091659;28;20213;-69
2022/03/03 05:11:13;;;;;;;31.77;20.23;;;0.20;99.90;;;;;;5096831;28;20546;-70
2022/03/03 05:13:39;;;;;;;30.80;19.13;;;0.00;99.90;;;;;;5090264;28;20230;-70
2022/03/03 05:16:05;;;;;;;28.70;18.20;;;0.00;99.90;;;;;;5092310;28;20188;-74
2022/03/03 05:18:31;;;;;;;27.50;17.80;;;0.00;99.90;;;;;;5089906;28;20736;-71
2022/03/03 05:20:57;;;;;;;27.77;17.77;;;0.10;99.90;;;;;;5095335;28;20193;-67
2022/03/03 05:23:23;;;;;;;26.43;18.93;;;0.20;99.90;;;;;;5106063;28;20192;-67
2022/03/03 05:25:48;;;;;;;30.73;18.90;;;0.20;99.90;;;;;;5093093;28;20245;-67
2022/03/03 05:28:14;;;;;;;27.87;18.97;;;0.30;99.90;;;;;;5100904;28;20186;-71
2022/03/03 05:30:39;;;;;;;28.63;18.33;;;0.30;99.90;;;;;;5094022;28;20211;-69
2022/03/03 05:33:05;;;;;;;29.40;18.83;;;0.40;99.90;;;;;;5100122;28;20212;-71
2022/03/03 05:35:30;;;;;;;33.57;19.30;;;0.40;99.90;;;;;;5086307;28;20191;-68
2022/03/03 05:37:56;;;;;;;26.97;18.77;;;0.40;99.90;;;;;;5093057;28;20207;-67
2022/03/03 05:40:21;;;;;;;27.97;18.30;;;0.40;99.90;;;;;;5087265;28;20205;-67
2022/03/03 05:42:47;;;;;;;29.40;18.50;;;0.40;99.90;;;;;;5096829;28;20189;-68
2022/03/03 05:45:13;;;;;;;30.80;20.17;;;0.30;99.90;;;;;;5090021;28;20563;-69
2022/03/03 05:47:40;;;;;;;30.63;18.80;;;0.30;99.90;;;;;;5095508;28;20223;-74
2022/03/03 05:50:06;;;;;;;26.87;20.20;;;0.30;99.90;;;;;;5088804;28;20256;-74
2022/03/03 05:52:32;;;;;;;28.83;19.57;;;0.40;99.90;;;;;;5090092;28;20599;-74
2022/03/03 05:54:58;;;;;;;30.33;19.03;;;0.40;99.90;;;;;;5088779;28;20998;-73
2022/03/03 05:57:32;;;;;;;26.23;18.80;;;0.40;99.90;;;;;;5093450;28;20284;-74
2022/03/03 06:00:05;;;;;;;28.50;18.30;;;0.30;99.90;;;;;;5091071;28;20249;-74
2022/03/03 06:02:30;;;;;;;28.30;18.30;;;0.40;99.90;;;;;;5078961;28;20222;-72
2022/03/03 06:04:57;;;;;;;29.33;19.30;;;0.40;99.90;;;;;;5086466;28;20209;-71
2022/03/03 06:07:27;;;;;;;30.93;18.90;;;0.40;99.90;;;;;;5100398;28;20291;-68
2022/03/03 06:09:56;;;;;;;35.57;20.57;;;0.40;99.90;;;;;;5098510;28;20212;-69
2022/03/03 06:12:40;;;;;;;29.80;19.30;;;0.40;99.90;;;;;;5104210;28;20237;-69
2022/03/03 06:15:06;;;;;;;30.53;18.33;;;0.20;99.90;;;;;;5080585;28;20296;-69
2022/03/03 06:17:34;;;;;;;31.27;20.47;;;0.00;99.90;;;;;;5102255;28;20189;-69
2022/03/03 06:20:00;;;;;;;30.33;19.77;;;0.00;99.90;;;;;;5097624;28;20266;-70
2022/03/03 06:22:26;;;;;;;35.40;19.93;;;-0.10;99.90;;;;;;5097111;28;20199;-71
2022/03/03 06:24:53;;;;;;;36.30;21.37;;;-0.10;99.90;;;;;;5090553;28;20204;-70
2022/03/03 06:27:19;;;;;;;29.93;20.33;;;-0.20;99.90;;;;;;5095000;28;20627;-71
2022/03/03 06:29:45;;;;;;;38.53;24.27;;;-0.20;99.90;;;;;;5096448;28;20235;-71
2022/03/03 06:32:11;;;;;;;40.70;24.23;;;-0.10;99.90;;;;;;5099158;28;20186;-71
2022/03/03 06:34:37;;;;;;;35.37;23.80;;;0.00;99.90;;;;;;5102024;28;20721;-70
2022/03/03 06:37:02;;;;;;;32.93;21.67;;;0.00;99.90;;;;;;5101360;28;20180;-70
2022/03/03 06:39:28;;;;;;;38.07;24.87;;;-0.10;99.90;;;;;;5102056;28;20265;-70
2022/03/03 06:41:54;;;;;;;37.83;22.33;;;-0.30;99.90;;;;;;5100858;28;20233;-70
2022/03/03 06:44:20;;;;;;;36.37;23.20;;;-0.40;99.90;;;;;;5093472;28;20191;-72
2022/03/03 06:49:29;;;;;;;36.17;24.20;;;-0.30;99.90;;;;;;5436629;23;20578;-70
2022/03/03 06:51:57;;;;;;;35.20;22.03;;;-0.30;99.90;;;;;;4994747;28;20256;-71
2022/03/03 06:54:23;;;;;;;34.67;22.77;;;-0.20;99.90;;;;;;5003635;28;20311;-71
2022/03/03 06:56:50;;;;;;;33.03;22.10;;;-0.20;99.90;;;;;;4999349;28;20205;-71
2022/03/03 06:59:18;;;;;;;40.50;24.30;;;-0.40;99.90;;;;;;4998771;28;20204;-70
2022/03/03 07:01:46;;;;;;;33.33;21.07;;;-0.40;99.90;;;;;;4995434;28;20935;-70
2022/03/03 07:04:13;;;;;;;38.20;25.40;;;-0.40;99.90;;;;;;4998335;28;20204;-70
2022/03/03 07:06:39;;;;;;;42.17;25.40;;;-0.50;99.90;;;;;;4990092;28;20211;-69
2022/03/03 07:09:05;;;;;;;42.50;25.10;;;-0.60;99.90;;;;;;5001790;28;20208;-70
2022/03/03 07:11:31;;;;;;;36.97;24.30;;;-0.80;99.90;;;;;;4989392;28;20192;-73
2022/03/03 07:13:58;;;;;;;39.87;24.67;;;-0.70;99.90;;;;;;4987577;28;20209;-73
2022/03/03 07:16:41;;;;;;;42.97;24.93;;;-0.60;99.90;;;;;;4994976;28;20256;-70
2022/03/03 07:19:26;;;;;;;46.80;26.03;;;-0.60;99.90;;;;;;4980678;28;20242;-70
2022/03/03 07:22:16;;;;;;;40.30;25.73;;;-0.60;99.90;;;;;;4989263;28;20914;-70
2022/03/03 07:24:45;;;;;;;53.50;28.07;;;-0.60;99.90;;;;;;5001360;28;20247;-69
2022/03/03 07:27:20;;;;;;;49.47;28.53;;;-0.50;99.90;;;;;;4999603;28;20587;-70
2022/03/03 07:29:55;;;;;;;46.67;27.30;;;-0.40;99.90;;;;;;4993801;28;20255;-69
2022/03/03 07:32:33;;;;;;;47.23;29.40;;;-0.40;99.90;;;;;;4999054;28;20191;-69
2022/03/03 07:35:01;;;;;;;48.50;28.57;;;-0.40;99.90;;;;;;4997489;28;20275;-70
2022/03/03 07:37:35;;;;;;;50.57;29.63;;;-0.50;99.90;;;;;;4996016;28;20180;-68
2022/03/03 07:40:06;;;;;;;49.37;27.47;;;-0.70;99.90;;;;;;4988958;28;20547;-69
2022/03/03 07:42:32;;;;;;;45.33;27.90;;;-0.60;99.90;;;;;;5000881;28;20672;-69
2022/03/03 07:44:58;;;;;;;44.80;27.47;;;-0.60;99.90;;;;;;4988121;28;20686;-71
2022/03/03 07:47:26;;;;;;;49.23;29.23;;;-0.50;99.90;;;;;;4994507;28;20190;-72
2022/03/03 07:49:52;;;;;;;53.70;29.90;;;-0.40;99.90;;;;;;4997043;28;20584;-73
2022/03/03 07:52:20;;;;;;;46.40;27.97;;;-0.30;99.90;;;;;;5000567;28;20685;-72
2022/03/03 07:54:46;;;;;;;46.63;26.23;;;-0.30;99.90;;;;;;5000475;28;20224;-71
2022/03/03 07:57:16;;;;;;;45.63;27.90;;;-0.20;99.90;;;;;;4994789;28;20641;-72
2022/03/03 07:59:46;;;;;;;42.87;28.23;;;-0.20;99.90;;;;;;4999229;28;20200;-71
2022/03/03 08:02:20;;;;;;;47.77;27.63;;;-0.20;99.90;;;;;;4995125;28;20189;-72
2022/03/03 08:04:46;;;;;;;47.77;26.87;;;-0.20;99.90;;;;;;4994213;28;20663;-72
2022/03/03 08:07:14;;;;;;;46.87;27.20;;;-0.10;99.90;;;;;;4990617;28;20202;-71
2022/03/03 08:09:41;;;;;;;42.80;24.40;;;-0.20;99.90;;;;;;4999415;28;20205;-66
2022/03/03 08:12:10;;;;;;;41.33;24.70;;;-0.30;99.90;;;;;;4996631;28;20194;-70
2022/03/03 08:14:36;;;;;;;40.07;24.60;;;-0.30;99.90;;;;;;4999324;28;20199;-67
2022/03/03 08:17:03;;;;;;;44.10;25.13;;;-0.20;99.90;;;;;;4982755;28;20196;-68
2022/03/03 08:19:30;;;;;;;40.70;23.57;;;-0.40;99.90;;;;;;5000486;28;20232;-68
2022/03/03 08:21:56;;;;;;;43.60;26.33;;;-0.20;99.90;;;;;;4993244;28;20283;-70
2022/03/03 08:24:23;;;;;;;42.90;25.73;;;-0.10;99.90;;;;;;4993981;28;20228;-69
2022/03/03 08:26:48;;;;;;;39.40;24.97;;;-0.10;99.90;;;;;;4992673;28;20208;-69
2022/03/03 08:29:14;;;;;;;45.00;26.60;;;0.10;99.90;;;;;;4997901;28;20226;-69
2022/03/03 08:31:42;;;;;;;46.33;26.03;;;0.10;99.90;;;;;;4990321;28;20203;-69
2022/03/03 08:34:16;;;;;;;50.40;25.93;;;0.00;99.90;;;;;;4992765;28;20204;-68
2022/03/03 08:36:50;;;;;;;49.50;26.83;;;0.10;99.90;;;;;;4990784;28;20200;-69
2022/03/03 08:39:21;;;;;;;46.20;26.07;;;0.10;99.90;;;;;;4966384;28;20663;-69
2022/03/03 08:41:47;;;;;;;41.07;24.60;;;0.10;99.90;;;;;;4987971;28;20550;-69
2022/03/03 08:44:12;;;;;;;39.07;23.80;;;0.10;99.90;;;;;;4997664;28;20199;-69
2022/03/03 08:46:41;;;;;;;41.60;23.97;;;0.10;99.90;;;;;;4991195;28;20251;-69
2022/03/03 08:49:10;;;;;;;40.13;24.47;;;0.10;99.90;;;;;;4988087;28;20278;-68
2022/03/03 08:51:37;;;;;;;38.20;23.10;;;0.20;99.90;;;;;;4998643;28;20285;-69
2022/03/03 08:54:03;;;;;;;39.20;23.57;;;0.30;99.90;;;;;;4995316;28;20191;-69
2022/03/03 08:56:29;;;;;;;46.63;26.53;;;0.30;99.90;;;;;;4990245;28;20310;-69
2022/03/03 08:58:54;;;;;;;40.27;24.07;;;0.30;99.90;;;;;;4998854;28;20285;-69
2022/03/03 09:01:20;;;;;;;39.37;24.20;;;0.40;99.90;;;;;;4992041;28;20698;-69
2022/03/03 09:03:46;;;;;;;43.07;23.60;;;0.40;99.90;;;;;;4995245;28;20275;-69
2022/03/03 09:06:18;;;;;;;40.77;24.00;;;0.40;99.90;;;;;;4992948;28;20192;-69
2022/03/03 09:08:44;;;;;;;39.33;23.60;;;0.50;99.90;;;;;;4990727;28;20201;-67
2022/03/03 09:11:10;;;;;;;37.83;22.97;;;0.30;99.90;;;;;;5006484;28;20314;-70
2022/03/03 09:13:36;;;;;;;39.27;24.07;;;0.40;99.90;;;;;;4993394;28;20198;-69
2022/03/03 09:16:03;;;;;;;34.83;23.00;;;0.50;99.90;;;;;;4994747;28;20655;-69
2022/03/03 09:18:28;;;;;;;37.77;23.20;;;0.40;99.90;;;;;;4988992;28;20202;-69
2022/03/03 09:20:54;;;;;;;38.00;21.17;;;0.30;99.90;;;;;;5000168;28;20565;-70
2022/03/03 09:23:20;;;;;;;37.23;22.50;;;0.30;99.90;;;;;;4995659;28;20202;-69
2022/03/03 09:25:45;;;;;;;39.67;20.90;;;0.40;99.90;;;;;;5008845;28;20199;-68
2022/03/03 09:28:11;;;;;;;43.33;23.40;;;0.50;99.90;;;;;;5000550;28;20192;-68
2022/03/03 09:30:37;;;;;;;35.80;20.47;;;0.70;99.90;;;;;;4993457;28;20230;-68
2022/03/03 09:33:04;;;;;;;37.67;21.10;;;0.60;99.90;;;;;;4998988;28;20787;-68
2022/03/03 09:35:30;;;;;;;37.00;21.93;;;0.50;99.90;;;;;;4996794;28;20204;-69
2022/03/03 09:37:56;;;;;;;39.93;22.37;;;0.70;99.90;;;;;;5002331;28;20366;-70
2022/03/03 09:40:21;;;;;;;41.77;22.43;;;0.70;99.90;;;;;;4991488;28;20300;-71
2022/03/03 09:43:06;;;;;;;34.77;22.13;;;0.50;99.90;;;;;;4989381;28;20276;-69
2022/03/03 09:45:34;;;;;;;32.13;20.33;;;0.60;99.90;;;;;;4991238;28;20215;-69
2022/03/03 09:48:03;;;;;;;33.63;21.57;;;0.70;99.90;;;;;;5004720;28;20283;-69
2022/03/03 09:50:29;;;;;;;30.27;18.60;;;0.90;99.90;;;;;;4994432;28;20240;-70
2022/03/03 09:52:55;;;;;;;28.97;17.93;;;0.90;99.90;;;;;;5000251;28;20208;-70
2022/03/03 09:55:21;;;;;;;28.77;18.47;;;0.90;99.90;;;;;;4995130;28;20205;-69
2022/03/03 09:57:48;;;;;;;30.73;18.20;;;1.00;99.90;;;;;;5000280;28;20278;-70
2022/03/03 10:00:14;;;;;;;25.27;16.80;;;1.10;99.90;;;;;;4994835;28;20215;-72
2022/03/03 10:03:00;;;;;;;27.93;18.03;;;0.90;99.90;;;;;;5003249;28;20206;-69
2022/03/03 10:05:47;;;;;;;25.40;17.70;;;0.90;99.90;;;;;;4993246;28;20212;-70
2022/03/03 10:08:15;;;;;;;25.07;15.27;;;1.00;99.90;;;;;;4995531;28;20201;-70
2022/03/03 10:10:43;;;;;;;22.97;15.37;;;1.20;99.90;;;;;;4998486;28;20307;-72
2022/03/03 10:13:10;;;;;;;22.87;15.57;;;1.30;99.90;;;;;;4988067;28;20193;-72
2022/03/03 10:15:36;;;;;;;20.40;13.67;;;1.20;99.90;;;;;;4997190;28;20611;-70
2022/03/03 10:18:09;;;;;;;25.00;13.70;;;1.10;99.90;;;;;;5002747;28;20196;-72
2022/03/03 10:20:37;;;;;;;23.23;15.63;;;1.20;99.90;;;;;;4992759;28;20278;-70
2022/03/03 10:23:07;;;;;;;22.23;14.03;;;1.40;99.90;;;;;;4999888;28;20197;-69
2022/03/03 10:25:35;;;;;;;27.77;14.77;;;1.40;99.90;;;;;;4992093;28;20213;-73
2022/03/03 10:28:21;;;;;;;22.90;14.60;;;1.40;99.90;;;;;;4993819;28;20250;-69
2022/03/03 10:31:07;;;;;;;18.27;12.97;;;1.60;99.90;;;;;;5007240;28;20261;-71
2022/03/03 10:33:37;;;;;;;22.43;15.13;;;1.60;99.90;;;;;;4977292;28;20992;-70
2022/03/03 10:36:08;;;;;;;27.57;15.70;;;1.50;99.90;;;;;;4997527;28;20197;-73
2022/03/03 10:38:46;;;;;;;22.93;15.30;;;1.40;99.90;;;;;;4991955;28;20300;-70
2022/03/03 10:41:32;;;;;;;24.33;13.80;;;1.50;99.90;;;;;;4992187;28;20283;-70
2022/03/03 10:44:01;;;;;;;19.43;13.03;;;1.60;99.90;;;;;;4972091;28;20200;-70
2022/03/03 10:46:27;;;;;;;21.53;12.87;;;1.80;99.90;;;;;;5003680;28;20651;-67
2022/03/03 10:48:52;;;;;;;21.77;14.17;;;1.90;99.90;;;;;;4993024;28;20710;-78
2022/03/03 10:51:19;;;;;;;21.43;13.70;;;2.00;99.90;;;;;;4997050;28;20219;-78
2022/03/03 10:53:45;;;;;;;20.60;13.67;;;2.00;99.90;;;;;;4998216;28;20200;-77
2022/03/03 10:56:17;;;;;;;24.60;15.53;;;1.90;99.90;;;;;;4994636;28;20203;-78
2022/03/03 10:59:01;;;;;;;19.90;12.40;;;2.00;99.90;;;;;;4973790;28;20204;-77
2022/03/03 11:01:28;;;;;;;25.27;13.10;;;1.90;99.90;;;;;;5006891;28;20172;-71
2022/03/03 11:03:55;;;;;;;23.17;12.20;;;2.00;99.90;;;;;;4997359;28;20189;-69
2022/03/03 11:06:23;;;;;;;20.33;13.03;;;2.10;99.90;;;;;;4999161;28;20662;-70
2022/03/03 11:08:49;;;;;;;19.77;12.03;;;2.20;99.90;;;;;;4997141;28;20288;-70
2022/03/03 11:11:15;;;;;;;21.07;13.03;;;2.20;99.90;;;;;;4998635;28;20223;-69
2022/03/03 11:13:43;;;;;;;16.03;11.30;;;2.10;99.90;;;;;;4988944;28;20255;-70
2022/03/03 11:16:08;;;;;;;20.97;12.87;;;1.80;99.90;;;;;;4994081;28;20263;-69
2022/03/03 11:18:34;;;;;;;19.33;11.90;;;2.00;99.90;;;;;;4988182;28;20197;-70
2022/03/03 11:21:00;;;;;;;16.70;12.03;;;2.20;99.90;;;;;;4996697;28;21008;-71
2022/03/03 11:23:37;;;;;;;16.30;10.87;;;2.20;99.90;;;;;;4994057;28;20200;-68
2022/03/03 11:26:04;;;;;;;14.80;11.17;;;2.40;99.90;;;;;;5000310;28;20271;-70
2022/03/03 11:28:39;;;;;;;19.57;11.87;;;2.30;99.90;;;;;;4992669;28;20199;-72
2022/03/03 11:31:33;;;;;;;19.57;11.37;;;2.40;99.90;;;;;;5001219;28;20279;-74
2022/03/03 11:34:30;;;;;;;16.50;10.77;;;2.40;99.90;;;;;;4992748;28;20289;-73
2022/03/03 11:37:15;;;;;;;15.47;9.47;;;2.50;99.90;;;;;;4987309;28;20581;-75
2022/03/03 11:39:58;;;;;;;15.77;10.97;;;2.60;99.90;;;;;;4979534;28;20682;-74
2022/03/03 11:42:34;;;;;;;17.30;11.60;;;2.60;99.90;;;;;;4995364;28;20286;-77
2022/03/03 11:45:17;;;;;;;20.30;12.57;;;2.70;99.90;;;;;;4989768;28;20204;-78
2022/03/03 11:47:45;;;;;;;19.10;11.23;;;2.90;99.90;;;;;;4981563;28;20200;-77
2022/03/03 11:50:25;;;;;;;19.03;11.57;;;2.90;99.90;;;;;;4983703;28;20247;-77
2022/03/03 11:52:56;;;;;;;18.90;12.57;;;3.00;99.90;;;;;;4975593;28;20190;-78
2022/03/03 11:55:48;;;;;;;15.60;10.93;;;2.90;99.90;;;;;;4993529;28;20374;-77
2022/03/03 11:58:17;;;;;;;20.53;12.67;;;3.00;99.90;;;;;;4998329;28;20384;-77
2022/03/03 12:00:59;;;;;;;20.10;11.87;;;3.00;99.90;;;;;;4998348;28;20200;-77
2022/03/03 12:03:28;;;;;;;18.83;12.00;;;3.00;99.90;;;;;;4989252;28;20609;-76
2022/03/03 12:06:13;;;;;;;17.63;11.10;;;2.90;99.90;;;;;;4991439;28;20656;-75
2022/03/03 12:08:40;;;;;;;17.67;10.83;;;2.90;99.90;;;;;;4967910;28;20212;-77
2022/03/03 12:11:17;;;;;;;15.53;9.53;;;2.90;99.90;;;;;;4996664;28;20185;-76
2022/03/03 12:13:48;;;;;;;21.80;10.37;;;2.80;99.90;;;;;;4981307;28;20195;-78
2022/03/03 12:16:35;;;;;;;13.73;9.90;;;2.90;99.90;;;;;;4994313;28;20644;-74
2022/03/03 12:19:00;;;;;;;21.77;11.63;;;3.00;99.90;;;;;;4983369;28;20279;-72
2022/03/03 12:21:28;;;;;;;18.47;9.47;;;3.00;99.90;;;;;;4987566;28;20698;-76
2022/03/03 12:24:22;;;;;;;16.00;9.37;;;3.00;99.90;;;;;;4987081;28;20412;-76
2022/03/03 12:26:56;;;;;;;18.50;10.50;;;3.00;99.90;;;;;;4975345;28;20665;-74
2022/03/03 12:29:48;;;;;;;17.63;10.27;;;3.10;99.90;;;;;;4996463;28;21213;-72
2022/03/03 12:32:32;;;;;;;14.87;9.57;;;3.10;99.90;;;;;;4992032;28;20187;-75
2022/03/03 12:35:00;;;;;;;15.07;8.50;;;3.00;99.90;;;;;;4991112;28;20212;-74
2022/03/03 12:37:26;;;;;;;13.77;8.90;;;3.10;99.90;;;;;;4998720;28;20239;-79
2022/03/03 12:39:54;;;;;;;17.03;9.47;;;3.10;99.90;;;;;;4991436;28;20544;-77
2022/03/03 12:42:21;;;;;;;15.50;9.33;;;3.20;99.90;;;;;;4990312;28;20216;-77
2022/03/03 12:44:54;;;;;;;15.47;8.97;;;3.30;99.90;;;;;;4999891;28;20303;-77
2022/03/03 12:47:51;;;;;;;15.47;9.23;;;3.20;99.90;;;;;;4993761;28;20785;-77